createdAt,value
2023-05-15T00:00:37.547Z,12.65
2023-05-15T00:03:05.667Z,12.62
2023-05-15T00:05:34.959Z,12.54
2023-05-15T00:08:02.943Z,12.49
2023-05-15T00:10:30.785Z,12.41
2023-05-15T00:12:58.553Z,12.32
2023-05-15T00:15:27.016Z,12.28
2023-05-15T00:17:55.229Z,12.24
2023-05-15T00:20:23.242Z,12.19
2023-05-15T00:22:52.500Z,12.14
2023-05-15T00:25:20.794Z,12.13
2023-05-15T00:27:48.621Z,12.13
2023-05-15T00:30:16.641Z,12.12
2023-05-15T00:32:44.748Z,12.09
2023-05-15T00:35:12.679Z,12.08
2023-05-15T00:37:40.645Z,12.07
2023-05-15T00:40:11.520Z,12.07
2023-05-15T00:42:40.176Z,12.07
2023-05-15T00:45:10.960Z,12.06
2023-05-15T00:47:40.417Z,12.08
2023-05-15T00:50:10.530Z,12.06
2023-05-15T00:52:39.128Z,12.07
2023-05-15T00:55:07.659Z,12.14
2023-05-15T00:57:37.254Z,12.19
2023-05-15T01:00:07.118Z,12.23
2023-05-15T01:02:35.279Z,12.29
2023-05-15T01:05:03.332Z,12.35
2023-05-15T01:07:33.118Z,12.39
2023-05-15T01:10:02.291Z,12.41
2023-05-15T01:12:31.272Z,12.42
2023-05-15T01:15:01.009Z,12.47
2023-05-15T01:17:28.874Z,12.47
2023-05-15T01:19:58.227Z,12.49
2023-05-15T01:22:42.980Z,12.47
2023-05-15T01:25:45.841Z,12.44
2023-05-15T01:28:16.350Z,12.41
2023-05-15T01:30:45.230Z,12.39
2023-05-15T01:33:18.245Z,12.35
2023-05-15T01:35:49.852Z,12.30
2023-05-15T01:38:20.696Z,12.26
2023-05-15T01:40:49.746Z,12.19
2023-05-15T01:43:23.990Z,12.09
2023-05-15T01:45:51.836Z,11.99
2023-05-15T01:48:21.119Z,11.74
2023-05-15T01:50:50.858Z,11.77
2023-05-15T01:53:20.134Z,11.73
2023-05-15T01:55:48.112Z,11.68
2023-05-15T01:58:16.225Z,11.64
2023-05-15T02:00:45.952Z,11.62
2023-05-15T02:03:14.304Z,11.60
2023-05-15T02:05:42.959Z,11.57
2023-05-15T02:08:10.831Z,11.55
2023-05-15T02:10:38.632Z,11.57
2023-05-15T02:13:06.862Z,11.60
2023-05-15T02:15:35.017Z,11.61
2023-05-15T02:18:04.317Z,11.58
2023-05-15T02:20:35.021Z,11.51
2023-05-15T02:23:02.819Z,11.45
2023-05-15T02:25:39.128Z,11.43
2023-05-15T02:28:09.004Z,11.42
2023-05-15T02:30:45.152Z,11.42
2023-05-15T02:33:23.442Z,11.39
2023-05-15T02:35:54.382Z,11.33
2023-05-15T02:38:27.118Z,11.32
2023-05-15T02:40:57.077Z,11.27
2023-05-15T02:43:25.299Z,11.26
2023-05-15T02:45:53.969Z,11.23
2023-05-15T02:48:23.266Z,11.19
2023-05-15T02:50:51.117Z,11.17
2023-05-15T02:53:18.891Z,11.12
2023-05-15T02:55:46.691Z,11.10
2023-05-15T02:58:14.553Z,11.04
2023-05-15T03:00:42.406Z,11.02
2023-05-15T03:03:10.300Z,10.99
2023-05-15T03:05:39.549Z,10.98
2023-05-15T03:08:07.396Z,10.97
2023-05-15T03:10:35.203Z,11.01
2023-05-15T03:13:03.831Z,11.01
2023-05-15T03:15:31.649Z,11.05
2023-05-15T03:17:59.492Z,11.03
2023-05-15T03:20:27.308Z,11.03
2023-05-15T03:22:56.492Z,11.05
2023-05-15T03:25:24.657Z,11.11
2023-05-15T03:27:52.597Z,11.17
2023-05-15T03:30:20.602Z,11.19
2023-05-15T03:32:48.485Z,11.19
2023-05-15T03:35:16.694Z,11.21
2023-05-15T03:37:44.635Z,11.24
2023-05-15T03:40:15.195Z,11.26
2023-05-15T03:42:42.982Z,11.26
2023-05-15T03:45:11.325Z,11.24
2023-05-15T03:47:39.227Z,11.26
2023-05-15T03:50:07.999Z,11.25
2023-05-15T03:52:35.848Z,11.20
2023-05-15T03:55:03.735Z,11.18
2023-05-15T03:57:33.353Z,11.13
2023-05-15T04:00:03.935Z,11.11
2023-05-15T04:02:31.842Z,11.09
2023-05-15T04:04:59.692Z,11.07
2023-05-15T04:07:28.163Z,10.93
2023-05-15T04:09:55.968Z,11.02
2023-05-15T04:12:23.766Z,11.03
2023-05-15T04:14:52.970Z,11.05
2023-05-15T04:17:20.770Z,10.96
2023-05-15T04:19:48.732Z,10.96
2023-05-15T04:22:16.506Z,10.91
2023-05-15T04:24:44.292Z,10.98
2023-05-15T04:27:12.150Z,11.01
2023-05-15T04:29:39.992Z,10.97
2023-05-15T04:32:09.387Z,10.92
2023-05-15T04:34:37.311Z,10.90
2023-05-15T04:37:05.675Z,10.93
2023-05-15T04:39:33.440Z,10.92
2023-05-15T04:42:01.216Z,10.92
2023-05-15T04:44:29.030Z,10.89
2023-05-15T04:46:56.833Z,10.87
2023-05-15T04:49:26.067Z,10.82
2023-05-15T04:51:53.871Z,10.82
2023-05-15T04:54:21.857Z,10.81
2023-05-15T04:56:49.661Z,10.79
2023-05-15T04:59:18.269Z,10.79
2023-05-15T05:01:46.433Z,10.80
2023-05-15T05:04:14.692Z,10.85
2023-05-15T05:06:43.956Z,10.91
2023-05-15T05:09:11.789Z,10.97
2023-05-15T05:11:43.528Z,11.05
2023-05-15T05:14:11.320Z,11.19
2023-05-15T05:16:39.364Z,11.26
2023-05-15T05:19:07.488Z,11.40
2023-05-15T05:21:35.408Z,11.52
2023-05-15T05:24:04.776Z,11.55
2023-05-15T05:26:32.623Z,11.52
2023-05-15T05:29:00.430Z,11.48
2023-05-15T05:31:28.264Z,11.42
2023-05-15T05:33:56.276Z,11.40
2023-05-15T05:36:24.135Z,11.39
2023-05-15T05:38:51.969Z,11.21
2023-05-15T05:41:21.615Z,11.20
2023-05-15T05:43:52.945Z,11.06
2023-05-15T05:46:21.228Z,11.08
2023-05-15T05:48:49.038Z,11.05
2023-05-15T05:51:16.824Z,11.10
2023-05-15T05:53:44.639Z,11.19
2023-05-15T05:56:12.503Z,11.31
2023-05-15T05:58:41.678Z,11.33
2023-05-15T06:01:09.482Z,11.33
2023-05-15T06:03:37.847Z,11.29
2023-05-15T06:06:06.544Z,11.22
2023-05-15T06:08:34.370Z,11.22
2023-05-15T06:11:02.155Z,11.26
2023-05-15T06:13:29.956Z,11.26
2023-05-15T06:15:59.387Z,11.25
2023-05-15T06:18:27.295Z,11.25
2023-05-15T06:20:55.113Z,11.25
2023-05-15T06:23:24.386Z,11.23
2023-05-15T06:25:52.314Z,11.35
2023-05-15T06:28:20.100Z,11.44
2023-05-15T06:30:47.916Z,11.48
2023-05-15T06:33:17.157Z,11.52
2023-05-15T06:35:45.038Z,11.55
2023-05-15T06:38:12.789Z,11.53
2023-05-15T06:40:40.587Z,11.49
2023-05-15T06:43:08.380Z,11.54
2023-05-15T06:45:36.215Z,11.55
2023-05-15T06:48:04.062Z,11.58
2023-05-15T06:50:33.265Z,11.58
2023-05-15T06:53:01.300Z,11.63
2023-05-15T06:55:29.150Z,11.66
2023-05-15T06:57:57.019Z,11.68
2023-05-15T07:00:24.809Z,11.59
2023-05-15T07:02:52.688Z,11.91
2023-05-15T07:05:21.882Z,12.04
2023-05-15T07:07:51.037Z,12.13
2023-05-15T07:10:18.834Z,12.24
2023-05-15T07:12:46.642Z,12.36
2023-05-15T07:15:14.480Z,12.50
2023-05-15T07:17:42.308Z,12.57
2023-05-15T07:20:10.954Z,12.53
2023-05-15T07:22:51.857Z,12.65
2023-05-15T07:25:25.702Z,12.71
2023-05-15T07:27:53.801Z,12.71
2023-05-15T07:30:21.660Z,12.75
2023-05-15T07:32:49.531Z,12.74
2023-05-15T07:35:18.340Z,12.82
2023-05-15T07:37:46.446Z,12.90
2023-05-15T07:40:15.500Z,13.02
2023-05-15T07:42:45.846Z,13.35
2023-05-15T07:45:13.790Z,13.47
2023-05-15T07:47:46.380Z,13.61
2023-05-15T07:50:14.483Z,13.66
2023-05-15T07:52:43.126Z,13.80
2023-05-15T07:55:11.209Z,13.76
2023-05-15T07:57:40.781Z,13.78
2023-05-15T08:00:13.558Z,13.80
2023-05-15T08:02:42.644Z,13.80
2023-05-15T08:05:10.832Z,13.77
2023-05-15T08:07:38.701Z,13.84
2023-05-15T08:10:07.631Z,13.96
2023-05-15T08:12:35.522Z,14.01
2023-05-15T08:15:03.344Z,14.05
2023-05-15T08:17:32.503Z,14.08
2023-05-15T08:20:00.397Z,14.03
2023-05-15T08:22:30.645Z,14.13
2023-05-15T08:24:58.711Z,14.15
2023-05-15T08:27:26.788Z,14.33
2023-05-15T08:29:55.207Z,14.48
2023-05-15T08:32:23.484Z,14.55
2023-05-15T08:34:52.839Z,14.68
2023-05-15T08:37:20.794Z,14.77
2023-05-15T08:39:48.755Z,14.77
2023-05-15T08:42:22.503Z,14.91
2023-05-15T08:44:51.045Z,15.13
2023-05-15T08:47:20.194Z,15.32
2023-05-15T08:49:55.590Z,15.33
2023-05-15T08:52:23.680Z,15.45
2023-05-15T08:54:51.764Z,15.52
2023-05-15T08:57:19.731Z,15.52
2023-05-15T08:59:48.102Z,15.58
2023-05-15T09:02:17.224Z,15.79
2023-05-15T09:04:45.550Z,15.73
2023-05-15T09:07:15.633Z,15.76
2023-05-15T09:09:44.216Z,15.77
2023-05-15T09:12:12.687Z,15.90
2023-05-15T09:14:40.501Z,16.04
2023-05-15T09:17:08.645Z,16.18
2023-05-15T09:19:36.943Z,16.03
2023-05-15T09:22:18.296Z,16.18
2023-05-15T09:24:48.161Z,16.30
2023-05-15T09:27:16.258Z,16.41
2023-05-15T09:29:44.060Z,16.46
2023-05-15T09:32:13.941Z,16.57
2023-05-15T09:34:43.127Z,16.51
2023-05-15T09:37:12.378Z,16.39
2023-05-15T09:39:43.574Z,16.41
2023-05-15T09:42:12.731Z,16.53
2023-05-15T09:44:42.837Z,16.47
2023-05-15T09:47:11.197Z,16.47
2023-05-15T09:49:39.153Z,16.48
2023-05-15T09:52:09.389Z,16.31
2023-05-15T09:54:37.851Z,16.24
2023-05-15T09:57:11.324Z,16.40
2023-05-15T09:59:44.924Z,16.62
2023-05-15T10:02:15.236Z,16.65
2023-05-15T10:04:43.055Z,16.44
2023-05-15T10:07:10.981Z,16.24
2023-05-15T10:09:39.501Z,16.01
2023-05-15T10:12:10.987Z,16.07
2023-05-15T10:14:38.795Z,16.16
2023-05-15T10:17:06.670Z,15.94
2023-05-15T10:19:37.525Z,16.11
2023-05-15T10:22:10.162Z,16.24
2023-05-15T10:24:39.980Z,16.32
2023-05-15T10:27:08.014Z,16.40
2023-05-15T10:29:37.878Z,16.47
2023-05-15T10:32:06.129Z,16.82
2023-05-15T10:34:34.390Z,17.17
2023-05-15T10:37:02.374Z,17.72
2023-05-15T10:39:30.689Z,18.34
2023-05-15T10:41:58.933Z,18.78
2023-05-15T10:44:26.750Z,18.58
2023-05-15T10:46:56.593Z,18.57
2023-05-15T10:49:24.704Z,18.26
2023-05-15T10:51:53.918Z,17.76
2023-05-15T10:54:23.147Z,17.85
2023-05-15T10:56:52.224Z,18.30
2023-05-15T10:59:20.374Z,18.89
2023-05-15T11:01:49.239Z,18.74
2023-05-15T11:04:20.267Z,18.94
2023-05-15T11:06:49.117Z,19.38
2023-05-15T11:09:36.637Z,19.60
2023-05-15T11:12:06.129Z,19.57
2023-05-15T11:14:35.816Z,19.31
2023-05-15T11:17:05.344Z,19.54
2023-05-15T11:19:39.640Z,19.89
2023-05-15T11:22:21.111Z,20.25
2023-05-15T11:24:51.388Z,20.46
2023-05-15T11:27:20.405Z,20.33
2023-05-15T11:30:08.581Z,20.67
2023-05-15T11:32:43.866Z,21.05
2023-05-15T11:35:13.840Z,21.58
2023-05-15T11:37:43.985Z,21.86
2023-05-15T11:40:15.691Z,21.80
2023-05-15T11:42:43.493Z,22.04
2023-05-15T11:45:11.929Z,22.06
2023-05-15T11:47:39.719Z,21.29
2023-05-15T11:50:08.586Z,21.06
2023-05-15T11:52:38.016Z,21.49
2023-05-15T11:55:07.026Z,21.89
2023-05-15T11:57:34.875Z,22.05
2023-05-15T12:00:02.652Z,22.08
2023-05-15T12:02:30.531Z,22.09
2023-05-15T12:04:58.514Z,22.15
2023-05-15T12:07:26.472Z,22.71
2023-05-15T12:09:56.032Z,22.92
2023-05-15T12:12:26.946Z,22.83
2023-05-15T12:14:59.316Z,22.74
2023-05-15T12:17:27.734Z,22.56
2023-05-15T12:19:57.132Z,22.93
2023-05-15T12:22:24.923Z,22.51
2023-05-15T12:24:52.750Z,22.39
2023-05-15T12:27:21.926Z,22.28
2023-05-15T12:29:49.722Z,22.13
2023-05-15T12:32:17.790Z,22.24
2023-05-15T12:34:46.283Z,22.66
2023-05-15T12:37:14.576Z,22.92
2023-05-15T12:39:52.092Z,23.27
2023-05-15T12:42:21.279Z,23.16
2023-05-15T12:44:52.188Z,23.79
2023-05-15T12:47:27.815Z,23.27
2023-05-15T12:49:58.705Z,23.24
2023-05-15T12:52:29.627Z,23.08
2023-05-15T12:55:01.377Z,23.40
2023-05-15T12:57:30.845Z,22.92
2023-05-15T12:59:58.638Z,22.51
2023-05-15T13:02:26.433Z,22.22
2023-05-15T13:04:54.274Z,22.23
2023-05-15T13:07:22.704Z,22.69
2023-05-15T13:10:03.706Z,23.31
2023-05-15T13:12:38.271Z,23.62
2023-05-15T13:15:07.581Z,22.85
2023-05-15T13:17:36.167Z,22.98
2023-05-15T13:20:05.694Z,23.50
2023-05-15T13:22:33.525Z,23.75
2023-05-15T13:25:01.290Z,23.42
2023-05-15T13:27:29.052Z,23.65
2023-05-15T13:29:58.230Z,23.64
2023-05-15T13:32:26.046Z,23.98
2023-05-15T13:34:54.962Z,23.95
2023-05-15T13:37:22.992Z,23.46
2023-05-15T13:39:50.762Z,22.58
2023-05-15T13:42:18.573Z,21.75
2023-05-15T13:44:46.330Z,21.54
2023-05-15T13:47:15.617Z,21.43
2023-05-15T13:49:43.463Z,21.50
2023-05-15T13:52:11.259Z,21.64
2023-05-15T13:54:39.461Z,21.85
2023-05-15T13:57:07.253Z,22.27
2023-05-15T13:59:35.096Z,22.09
2023-05-15T14:02:02.956Z,21.79
2023-05-15T14:04:32.307Z,21.12
2023-05-15T14:07:00.214Z,20.97
2023-05-15T14:09:28.527Z,20.75
2023-05-15T14:11:56.404Z,20.48
2023-05-15T14:14:24.638Z,20.49
2023-05-15T14:16:52.841Z,20.32
2023-05-15T14:19:20.854Z,20.18
2023-05-15T14:21:50.175Z,20.11
2023-05-15T14:24:18.000Z,19.99
2023-05-15T14:26:46.091Z,20.00
2023-05-15T14:29:14.299Z,20.30
2023-05-15T14:31:42.453Z,20.44
2023-05-15T14:34:11.060Z,20.65
2023-05-15T14:36:38.807Z,20.76
2023-05-15T14:39:07.956Z,20.56
2023-05-15T14:41:35.749Z,20.75
2023-05-15T14:44:03.538Z,20.79
2023-05-15T14:46:31.326Z,21.09
2023-05-15T14:48:59.150Z,21.25
2023-05-15T14:51:26.929Z,21.25
2023-05-15T14:53:54.718Z,20.95
2023-05-15T14:56:23.924Z,20.77
2023-05-15T14:58:53.695Z,21.07
2023-05-15T15:01:21.642Z,21.45
2023-05-15T15:03:49.582Z,21.71
2023-05-15T15:06:17.590Z,21.79
2023-05-15T15:08:45.373Z,21.89
2023-05-15T15:11:13.202Z,22.19
2023-05-15T15:13:42.299Z,21.96
2023-05-15T15:16:10.192Z,22.03
2023-05-15T15:18:38.108Z,22.01
2023-05-15T15:21:06.217Z,21.82
2023-05-15T15:23:34.009Z,21.79
2023-05-15T15:26:01.809Z,22.16
2023-05-15T15:28:33.580Z,22.09
2023-05-15T15:31:02.806Z,22.42
2023-05-15T15:33:30.579Z,22.64
2023-05-15T15:35:58.344Z,22.37
2023-05-15T15:38:26.201Z,22.21
2023-05-15T15:40:53.990Z,22.39
2023-05-15T15:43:21.746Z,22.37
2023-05-15T15:45:49.584Z,22.37
2023-05-15T15:48:19.148Z,22.42
2023-05-15T15:50:47.423Z,22.40
2023-05-15T15:53:15.177Z,22.61
2023-05-15T15:55:44.158Z,22.53
2023-05-15T15:58:12.892Z,22.38
2023-05-15T16:00:41.247Z,21.91
2023-05-15T16:03:09.231Z,21.67
2023-05-15T16:05:38.427Z,21.41
2023-05-15T16:08:06.715Z,21.12
2023-05-15T16:10:34.478Z,20.89
2023-05-15T16:13:02.332Z,20.77
2023-05-15T16:15:30.104Z,20.38
2023-05-15T16:17:58.018Z,20.34
2023-05-15T16:20:26.248Z,20.09
2023-05-15T16:22:55.646Z,19.99
2023-05-15T16:25:23.544Z,19.77
2023-05-15T16:27:51.342Z,19.68
2023-05-15T16:30:19.224Z,19.52
2023-05-15T16:32:47.085Z,19.40
2023-05-15T16:35:14.880Z,19.35
2023-05-15T16:37:42.689Z,19.24
2023-05-15T16:40:12.860Z,19.26
2023-05-15T16:42:41.508Z,19.48
2023-05-15T16:45:10.177Z,19.59
2023-05-15T16:47:39.297Z,19.86
2023-05-15T16:50:08.265Z,20.09
2023-05-15T16:52:36.847Z,20.32
2023-05-15T16:55:05.038Z,19.96
2023-05-15T16:57:37.654Z,20.11
2023-05-15T17:00:07.592Z,20.24
2023-05-15T17:02:35.501Z,20.29
2023-05-15T17:05:03.698Z,19.98
2023-05-15T17:07:31.447Z,19.50
2023-05-15T17:09:59.304Z,19.21
2023-05-15T17:12:27.164Z,19.17
2023-05-15T17:14:58.577Z,19.11
2023-05-15T17:17:26.494Z,19.00
2023-05-15T17:19:54.351Z,19.00
2023-05-15T17:22:22.703Z,18.96
2023-05-15T17:24:52.361Z,18.97
2023-05-15T17:27:20.761Z,18.94
2023-05-15T17:29:49.020Z,18.82
2023-05-15T17:32:19.089Z,18.72
2023-05-15T17:34:47.315Z,18.57
2023-05-15T17:37:15.415Z,18.49
2023-05-15T17:39:43.215Z,18.52
2023-05-15T17:42:10.993Z,18.40
2023-05-15T17:44:39.305Z,18.19
2023-05-15T17:47:07.829Z,17.97
2023-05-15T17:49:37.012Z,17.75
2023-05-15T17:52:05.170Z,17.75
2023-05-15T17:54:32.962Z,17.61
2023-05-15T17:57:00.764Z,17.53
2023-05-15T17:59:29.153Z,17.44
2023-05-15T18:01:57.064Z,17.33
2023-05-15T18:04:25.090Z,17.27
2023-05-15T18:06:54.292Z,17.24
2023-05-15T18:09:24.264Z,17.23
2023-05-15T18:11:52.637Z,17.08
2023-05-15T18:14:20.496Z,16.98
2023-05-15T18:16:48.316Z,16.95
2023-05-15T18:19:16.184Z,16.90
2023-05-15T18:21:43.952Z,16.83
2023-05-15T18:24:13.133Z,16.76
2023-05-15T18:26:41.072Z,16.62
2023-05-15T18:29:08.898Z,16.46
2023-05-15T18:31:37.285Z,16.33
2023-05-15T18:34:05.249Z,16.24
2023-05-15T18:36:33.017Z,16.15
2023-05-15T18:39:02.476Z,16.03
2023-05-15T18:41:31.636Z,16.05
2023-05-15T18:43:59.452Z,15.98
2023-05-15T18:46:28.426Z,15.98
2023-05-15T18:48:56.402Z,15.95
2023-05-15T18:51:24.562Z,15.78
2023-05-15T18:53:52.374Z,15.74
2023-05-15T18:56:20.120Z,15.68
2023-05-15T18:58:49.323Z,15.55
2023-05-15T19:01:17.238Z,15.33
2023-05-15T19:03:45.163Z,15.35
2023-05-15T19:06:19.688Z,15.33
2023-05-15T19:08:48.316Z,15.28
2023-05-15T19:11:16.135Z,15.20
2023-05-15T19:13:43.885Z,15.16
2023-05-15T19:16:13.057Z,15.19
2023-05-15T19:18:40.886Z,15.19
2023-05-15T19:21:08.710Z,15.15
2023-05-15T19:23:36.474Z,15.05
2023-05-15T19:26:04.395Z,14.94
2023-05-15T19:28:32.264Z,14.94
2023-05-15T19:31:00.002Z,14.82
2023-05-15T19:33:29.445Z,14.75
2023-05-15T19:35:57.231Z,14.76
2023-05-15T19:38:24.981Z,14.74
2023-05-15T19:40:53.008Z,14.67
2023-05-15T19:43:20.765Z,14.54
2023-05-15T19:45:48.694Z,14.46
2023-05-15T19:48:16.574Z,14.39
2023-05-15T19:50:46.063Z,14.32
2023-05-15T19:53:13.848Z,14.25
2023-05-15T19:55:41.833Z,14.19
2023-05-15T19:58:09.678Z,14.09
2023-05-15T20:00:37.457Z,14.07
2023-05-15T20:03:05.504Z,13.93
2023-05-15T20:05:33.398Z,13.86
2023-05-15T20:08:02.574Z,13.75
2023-05-15T20:10:30.521Z,13.70
2023-05-15T20:12:58.356Z,13.62
2023-05-15T20:15:29.274Z,13.57
2023-05-15T20:17:57.140Z,13.57
2023-05-15T20:20:25.256Z,13.48
2023-05-15T20:22:53.285Z,13.35
2023-05-15T20:25:24.243Z,13.31
2023-05-15T20:27:56.415Z,13.24
2023-05-15T20:30:24.579Z,13.18
2023-05-15T20:32:52.774Z,13.11
2023-05-15T20:35:20.871Z,13.02
2023-05-15T20:37:48.609Z,12.99
2023-05-15T20:40:16.642Z,12.93
2023-05-15T20:42:45.986Z,12.83
2023-05-15T20:45:13.968Z,12.76
2023-05-15T20:47:45.407Z,12.74
2023-05-15T20:50:13.733Z,12.67
2023-05-15T20:52:41.741Z,12.59
2023-05-15T20:55:15.975Z,12.56
2023-05-15T20:57:49.379Z,12.52
2023-05-15T21:00:18.814Z,12.44
2023-05-15T21:02:47.516Z,12.30
2023-05-15T21:05:15.785Z,12.39
2023-05-15T21:07:44.479Z,12.40
2023-05-15T21:10:12.785Z,12.38
2023-05-15T21:12:42.168Z,12.32
2023-05-15T21:15:12.230Z,12.27
2023-05-15T21:17:40.973Z,12.24
2023-05-15T21:20:10.531Z,12.21
2023-05-15T21:22:38.417Z,12.15
2023-05-15T21:25:07.007Z,12.07
2023-05-15T21:27:34.893Z,11.99
2023-05-15T21:30:02.770Z,11.97
2023-05-15T21:32:32.020Z,11.94
2023-05-15T21:34:59.862Z,11.93
2023-05-15T21:37:28.210Z,11.86
2023-05-15T21:39:55.976Z,11.83
2023-05-15T21:42:23.906Z,11.85
2023-05-15T21:44:51.660Z,11.81
2023-05-15T21:47:19.538Z,11.73
2023-05-15T21:49:48.740Z,11.68
2023-05-15T21:52:16.668Z,11.52
2023-05-15T21:54:44.708Z,11.61
2023-05-15T21:57:12.529Z,11.59
2023-05-15T21:59:40.389Z,11.50
2023-05-15T22:02:08.346Z,11.41
2023-05-15T22:04:36.318Z,11.40
2023-05-15T22:07:05.854Z,11.40
2023-05-15T22:09:33.803Z,11.36
2023-05-15T22:12:01.637Z,11.31
2023-05-15T22:14:29.535Z,11.26
2023-05-15T22:16:57.350Z,11.27
2023-05-15T22:19:33.013Z,11.20
2023-05-15T22:22:01.907Z,11.21
2023-05-15T22:24:31.201Z,11.20
2023-05-15T22:26:59.061Z,11.14
2023-05-15T22:29:26.905Z,11.13
2023-05-15T22:31:55.181Z,11.07
2023-05-15T22:34:23.096Z,11.06
2023-05-15T22:36:50.841Z,11.03
2023-05-15T22:39:18.665Z,11.00
2023-05-15T22:41:47.890Z,10.95
2023-05-15T22:44:15.926Z,10.92
2023-05-15T22:46:44.060Z,10.94
2023-05-15T22:49:23.468Z,10.91
2023-05-15T22:51:51.603Z,10.86
2023-05-15T22:54:21.748Z,10.84
2023-05-15T22:56:52.181Z,10.82
2023-05-15T22:59:20.109Z,10.80
2023-05-15T23:01:49.225Z,10.80
2023-05-15T23:04:18.220Z,10.80
2023-05-15T23:06:46.419Z,10.80
2023-05-15T23:09:14.208Z,10.81
2023-05-15T23:11:42.214Z,10.78
2023-05-15T23:14:12.151Z,10.82
2023-05-15T23:16:39.960Z,10.78
2023-05-15T23:19:07.931Z,10.77
2023-05-15T23:21:36.367Z,10.77
2023-05-15T23:24:04.336Z,10.76
2023-05-15T23:26:32.337Z,10.75
2023-05-15T23:29:00.281Z,10.75
2023-05-15T23:31:29.552Z,10.78
2023-05-15T23:33:57.379Z,10.78
2023-05-15T23:36:25.417Z,10.75
2023-05-15T23:38:53.232Z,10.75
2023-05-15T23:41:21.989Z,10.72
2023-05-15T23:43:50.775Z,10.70
2023-05-15T23:46:18.875Z,10.72
2023-05-15T23:48:48.339Z,10.69
2023-05-15T23:51:16.524Z,10.66
2023-05-15T23:53:44.531Z,10.69
2023-05-15T23:56:12.280Z,10.64
2023-05-15T23:58:40.298Z,10.61
